Terminal Aerodrome Forecast
Issued by NWS

Home | Current Version | Previous Version | Text Only | Print | Product List | Glossary On
Versions: 1 2 3 4 5 6 7 8 9 10 11 12 13 14 15 16 17 18 19 20 21
000
FTUS44 KLIX 250443 AAB
TAFMSY
TAF AMD
KMSY 250443Z 2505/2524 15013KT P6SM BKN009 OVC025
     FM250600 17009KT P6SM BKN025
     FM251100 21008KT P6SM BKN035
      TEMPO 2518/2521 VRB20KT 2SM TSRA BKN020CB=

USA.gov is the U.S. government's official web portal to all federal, state and local government web resources and services.